This is the latest recevied weather packets stored in our database for station/object RK6MF-10. If no packets are shown the sender has not sent any weather packets the latest 10 day(s).
| Time | Temp. | Humidity | Pressure | Rain* | Wind** | Luminosity | Snow |
|---|---|---|---|---|---|---|---|
| 1787801708 | 18.89° C | 51% | 1010.7 hPa | - | - | - | - |
| 1787800808 | 18.33° C | 53% | 1010.5 hPa | - | - | - | - |
| 1787799908 | 17.78° C | 53% | 1010.6 hPa | - | - | - | - |
| 1787799008 | 17.22° C | 54% | 1010.7 hPa | - | - | - | - |
| 1787798108 | 16.67° C | 54% | 1010.5 hPa | - | - | - | - |
| 1787797208 | 16.67° C | 54% | 1010.6 hPa | - | - | - | - |
| 1787796308 | 16.67° C | 52% | 1010.4 hPa | - | - | - | - |
| 1787795408 | 16.67° C | 53% | 1010.4 hPa | - | - | - | - |
| 1787793611 | 16.67° C | 53% | 1010.6 hPa | - | - | - | - |
| 1787792710 | 17.22° C | 55% | 1010.6 hPa | - | - | - | - |
| 1787791809 | 18.33° C | 50% | 1010.5 hPa | - | - | - | - |
| 1787790909 | 18.33° C | 48% | 1010.7 hPa | - | - | - | - |
| 1787790009 | 18.33° C | 47% | 1010.7 hPa | - | - | - | - |
| 1787789109 | 18.89° C | 45% | 1010.7 hPa | - | - | - | - |
| 1787788209 | 19.44° C | 43% | 1010.7 hPa | - | - | - | - |
| 1787787309 | 19.44° C | 43% | 1010.6 hPa | - | - | - | - |
| 1787786409 | 19.44° C | 44% | 1010.7 hPa | - | - | - | - |
| 1787785509 | 19.44° C | 43% | 1010.8 hPa | - | - | - | - |
| 1787784609 | 20° C | 43% | 1010.9 hPa | - | - | - | - |
| 1787783708 | 20° C | 43% | 1010.8 hPa | - | - | - | - |
| 1787782808 | 19.44° C | 43% | 1010.8 hPa | - | - | - | - |
| 1787781908 | 20° C | 44% | 1010.8 hPa | - | - | - | - |
| 1787781008 | 19.44° C | 45% | 1011 hPa | - | - | - | - |
| 1787780108 | 20° C | 45% | 1010.9 hPa | - | - | - | - |
| 1787779208 | 20.56° C | 43% | 1011 hPa | - | - | - | - |
* Rain since midnight (hover to see other rain measurements)
** Current wind speed in m/s (hover to see current wind gust speed)